Time;durP1;ratioP1;P1;durP2;ratioP2;P2;SDS_P1;SDS_P2;PMS_P1;PMS_P2;Temp;Humidity;BMP_temperature;BMP_pressure;BME280_temperature;BME280_humidity;BME280_pressure;Samples;Min_cycle;Max_cycle;Signal;HPM_P1;HPM_P2
2021/12/01 00:00:35;;;;;;;3.10;2.80;;;;;;;6.37;84.70;98823.06;5035251;28;20125;-55
2021/12/01 00:03:02;;;;;;;3.90;3.30;;;;;;;6.38;84.72;98814.50;5035151;28;20045;-56
2021/12/01 00:05:31;;;;;;;3.88;3.30;;;;;;;6.39;84.62;98816.25;5051087;28;20044;-56
2021/12/01 00:07:57;;;;;;;3.95;3.53;;;;;;;6.39;84.62;98808.53;5034044;28;20404;-55
2021/12/01 00:10:26;;;;;;;3.50;3.08;;;;;;;6.40;84.61;98802.53;5017395;28;20037;-55
2021/12/01 00:12:52;;;;;;;3.63;3.33;;;;;;;6.40;85.04;98799.97;5033972;28;20073;-56
2021/12/01 00:15:19;;;;;;;4.13;3.30;;;;;;;6.42;84.58;98802.53;5035106;28;20057;-56
2021/12/01 00:17:44;;;;;;;5.25;3.08;;;;;;;6.41;84.84;98793.09;5034849;28;20033;-56
2021/12/01 00:20:13;;;;;;;3.47;3.17;;;;;;;6.42;84.54;98789.66;5034796;28;20091;-55
2021/12/01 00:22:40;;;;;;;6.40;3.10;;;;;;;6.42;84.61;98789.66;5033869;28;20122;-55
2021/12/01 00:25:07;;;;;;;3.78;3.17;;;;;;;6.42;85.00;98783.69;5034030;28;20030;-56
2021/12/01 00:27:32;;;;;;;4.00;3.25;;;;;;;6.42;85.16;98787.09;5034968;28;20155;-53
2021/12/01 00:29:58;;;;;;;4.60;3.28;;;;;;;6.42;85.19;98765.66;5034378;28;20128;-56
2021/12/01 00:32:24;;;;;;;3.78;3.47;;;;;;;6.41;84.56;98757.06;5034851;28;20477;-56
2021/12/01 00:34:51;;;;;;;3.40;3.08;;;;;;;6.42;84.71;98743.34;5033510;28;20033;-56
2021/12/01 00:37:17;;;;;;;3.92;3.50;;;;;;;6.40;84.71;98735.63;5017043;28;20045;-55
2021/12/01 00:39:43;;;;;;;4.10;3.58;;;;;;;6.42;84.66;98732.19;5049980;28;20128;-55
2021/12/01 00:42:09;;;;;;;4.85;3.47;;;;;;;6.42;84.88;98737.34;5034692;28;20103;-55
2021/12/01 00:44:35;;;;;;;4.47;3.58;;;;;;;6.41;84.56;98736.47;5034533;28;20084;-55
2021/12/01 00:49:33;;;;;;;3.50;3.20;;;;;;;6.44;84.52;98725.38;5049845;28;20087;-55
2021/12/01 00:51:58;;;;;;;5.38;3.20;;;;;;;6.43;84.76;98710.75;5033552;28;20431;-55
2021/12/01 00:54:24;;;;;;;3.70;3.13;;;;;;;6.42;84.93;98707.31;5034699;28;20559;-55
2021/12/01 00:56:55;;;;;;;4.18;3.65;;;;;;;6.43;85.04;98692.75;5034355;28;20038;-55
2021/12/01 00:59:20;;;;;;;5.30;4.80;;;;;;;6.42;84.54;98697.00;5034234;28;20366;-55
2021/12/01 01:01:46;;;;;;;5.78;4.32;;;;;;;6.42;84.65;98691.88;5032881;28;20559;-55
2021/12/01 01:04:13;;;;;;;5.72;4.35;;;;;;;6.44;84.71;98691.91;5033180;28;20457;-55
2021/12/01 01:06:42;;;;;;;4.63;4.13;;;;;;;6.43;84.87;98674.72;5032959;28;20404;-56
2021/12/01 01:09:10;;;;;;;6.82;5.00;;;;;;;6.42;84.82;98684.16;5032625;28;20079;-55
2021/12/01 01:17:09;;;;;;;5.60;5.00;;;;;;;6.42;84.70;98671.28;5034312;28;20488;-55
2021/12/01 01:19:36;;;;;;;6.80;5.45;;;;;;;6.42;84.66;98663.56;5033886;28;20030;-55
2021/12/01 01:22:03;;;;;;;7.55;5.70;;;;;;;6.43;85.13;98656.72;5033742;28;20064;-55
2021/12/01 01:24:29;;;;;;;6.38;4.95;;;;;;;6.43;84.72;98647.28;5034086;28;20658;-56
2021/12/01 01:26:56;;;;;;;6.43;5.65;;;;;;;6.44;84.96;98625.00;5033841;28;20116;-55
2021/12/01 01:29:25;;;;;;;6.13;5.53;;;;;;;6.44;85.08;98627.56;5049542;28;20037;-55
2021/12/01 01:31:57;;;;;;;7.15;6.22;;;;;;;6.44;84.85;98625.84;5033922;28;20045;-55
2021/12/01 01:34:26;;;;;;;6.78;5.25;;;;;;;6.43;84.95;98606.09;5049068;28;20033;-55
2021/12/01 01:36:54;;;;;;;6.35;5.63;;;;;;;6.44;85.13;98599.25;5032733;28;20087;-55
2021/12/01 01:39:20;;;;;;;8.05;6.30;;;;;;;6.44;85.24;98591.53;5015853;28;20554;-55
2021/12/01 01:41:46;;;;;;;7.68;6.50;;;;;;;6.44;84.98;98586.38;5033503;28;20116;-55
2021/12/01 01:44:12;;;;;;;7.47;6.28;;;;;;;6.43;84.88;98579.50;5033655;28;20041;-55
2021/12/01 01:46:39;;;;;;;9.70;7.20;;;;;;;6.42;85.27;98567.47;5032402;28;20042;-55
2021/12/01 01:49:17;;;;;;;7.07;6.38;;;;;;;6.43;84.56;98558.91;5033603;28;20040;-55
2021/12/01 01:51:42;;;;;;;7.95;6.60;;;;;;;6.43;84.72;98566.63;5033562;28;20041;-55
2021/12/01 01:54:09;;;;;;;8.05;7.25;;;;;;;6.43;84.94;98546.91;5033537;28;20044;-55
2021/12/01 01:56:35;;;;;;;9.32;7.18;;;;;;;6.43;84.76;98551.19;5032535;28;20110;-55
2021/12/01 01:59:02;;;;;;;9.18;7.47;;;;;;;6.43;84.80;98548.63;5032080;28;20404;-55
2021/12/01 02:03:57;;;;;;;8.48;7.57;;;;;;;6.41;84.56;98535.72;5048387;28;20060;-55
2021/12/01 02:06:23;;;;;;;9.13;7.53;;;;;;;6.41;84.90;98540.88;5033191;28;20485;-55
2021/12/01 02:08:51;;;;;;;9.82;8.43;;;;;;;6.41;84.97;98525.44;5033392;28;20069;-55
2021/12/01 02:11:18;;;;;;;10.00;7.63;;;;;;;6.40;84.87;98516.84;5015607;28;20121;-55
2021/12/01 02:13:44;;;;;;;11.18;8.55;;;;;;;6.39;85.11;98520.28;5032169;28;20397;-55
2021/12/01 02:16:12;;;;;;;12.45;9.10;;;;;;;6.40;84.86;98509.13;5032135;28;20030;-55
2021/12/01 02:18:39;;;;;;;11.57;8.98;;;;;;;6.41;84.82;98517.72;5031944;28;20147;-55
2021/12/01 02:21:13;;;;;;;11.07;9.55;;;;;;;6.40;85.05;98505.69;5033042;28;20041;-55
2021/12/01 02:23:44;;;;;;;11.37;9.67;;;;;;;6.40;84.56;98515.97;5036201;28;20382;-55
2021/12/01 02:26:10;;;;;;;11.52;9.27;;;;;;;6.40;85.04;98497.97;5036244;28;20038;-55
2021/12/01 02:28:37;;;;;;;12.32;10.65;;;;;;;6.39;84.77;98499.69;5035923;28;20033;-55
2021/12/01 02:31:03;;;;;;;14.20;10.93;;;;;;;6.42;84.82;98503.16;5019432;28;20041;-56
2021/12/01 02:33:29;;;;;;;13.00;10.18;;;;;;;6.39;85.06;98491.97;5019313;28;20508;-55
2021/12/01 02:35:55;;;;;;;12.05;9.27;;;;;;;6.39;84.63;98499.69;5019328;28;20067;-55
2021/12/01 02:38:25;;;;;;;13.20;11.57;;;;;;;6.40;85.17;98482.53;5036476;28;20049;-55
2021/12/01 02:40:51;;;;;;;12.35;9.68;;;;;;;6.39;84.96;98481.69;5019166;28;20492;-55
2021/12/01 02:43:17;;;;;;;12.43;10.02;;;;;;;6.38;84.70;98469.66;5036848;28;20038;-56
2021/12/01 02:45:43;;;;;;;14.55;10.57;;;;;;;6.40;85.12;98464.50;5052197;28;20033;-56
2021/12/01 02:48:13;;;;;;;15.73;10.32;;;;;;;6.40;85.28;98467.09;5035860;28;20064;-55
2021/12/01 02:50:42;;;;;;;18.35;12.40;;;;;;;6.40;84.94;98455.09;5019077;28;20116;-55
2021/12/01 02:53:08;;;;;;;14.23;10.52;;;;;;;6.40;84.99;98456.78;5036873;28;20193;-55
2021/12/01 02:55:42;;;;;;;13.20;10.02;;;;;;;6.40;84.80;98449.06;5036555;28;20033;-55
2021/12/01 02:58:08;;;;;;;14.63;10.70;;;;;;;6.39;85.44;98442.19;5036359;28;20056;-55
2021/12/01 03:00:37;;;;;;;11.68;9.65;;;;;;;6.39;84.83;98443.06;5018677;28;20029;-55
2021/12/01 03:03:04;;;;;;;14.88;11.05;;;;;;;6.38;84.74;98446.50;5035209;28;20076;-55
2021/12/01 03:05:42;;;;;;;11.77;9.45;;;;;;;6.37;85.05;98449.06;5036707;28;20033;-55
2021/12/01 03:08:14;;;;;;;13.98;9.52;;;;;;;6.37;85.09;98439.63;5018569;28;20124;-55
2021/12/01 03:10:39;;;;;;;11.55;9.80;;;;;;;6.36;84.71;98445.63;5036466;28;20092;-55
2021/12/01 03:13:07;;;;;;;13.25;9.95;;;;;;;6.36;84.80;98430.19;5035104;28;20030;-55
2021/12/01 03:15:36;;;;;;;14.70;9.73;;;;;;;6.36;84.88;98414.75;5035744;28;20120;-55
2021/12/01 03:18:08;;;;;;;13.05;10.07;;;;;;;6.36;84.91;98431.91;5051648;28;20033;-55
2021/12/01 03:20:33;;;;;;;10.70;9.60;;;;;;;6.36;85.18;98424.19;5018653;28;20073;-55
2021/12/01 03:23:01;;;;;;;12.18;9.90;;;;;;;6.37;84.61;98423.34;5036134;28;20512;-55
2021/12/01 03:25:30;;;;;;;12.07;10.18;;;;;;;6.36;85.26;98406.19;5036040;28;20073;-55
2021/12/01 03:27:56;;;;;;;14.52;9.55;;;;;;;6.34;84.95;98398.44;5018630;28;20061;-55
2021/12/01 03:30:22;;;;;;;10.82;8.32;;;;;;;6.34;84.97;98379.56;5051418;28;20076;-55
2021/12/01 03:32:49;;;;;;;12.43;8.88;;;;;;;6.33;85.03;98391.56;5051168;28;20480;-55
2021/12/01 03:35:19;;;;;;;12.65;8.88;;;;;;;6.35;85.12;98371.00;5035953;28;20103;-55
2021/12/01 03:37:52;;;;;;;12.60;8.55;;;;;;;6.34;84.74;98367.53;5034781;28;20041;-55
2021/12/01 03:40:18;;;;;;;9.02;8.05;;;;;;;6.33;84.87;98354.69;5034572;28;20034;-56
2021/12/01 03:42:44;;;;;;;12.85;7.47;;;;;;;6.32;85.42;98352.97;5035864;28;20040;-55
2021/12/01 03:45:12;;;;;;;12.77;8.63;;;;;;;6.31;85.13;98333.22;5034525;28;20472;-55
2021/12/01 03:47:37;;;;;;;8.50;7.30;;;;;;;6.31;84.89;98336.66;5034461;28;20033;-55
2021/12/01 03:50:04;;;;;;;9.68;7.32;;;;;;;6.31;84.93;98317.78;5034601;28;20457;-55
2021/12/01 03:52:29;;;;;;;11.30;7.05;;;;;;;6.31;84.89;98310.91;5051100;28;20108;-55
2021/12/01 03:54:58;;;;;;;9.30;6.43;;;;;;;6.29;84.75;98294.63;5050889;28;20124;-55
2021/12/01 03:57:23;;;;;;;10.40;6.75;;;;;;;6.30;84.69;98298.94;5035773;28;20040;-55
2021/12/01 03:59:54;;;;;;;7.30;5.85;;;;;;;6.30;85.22;98301.50;5034268;28;20397;-55
2021/12/01 04:02:19;;;;;;;9.68;7.65;;;;;;;6.29;84.68;98286.91;5034429;28;20081;-55
2021/12/01 04:04:45;;;;;;;10.02;7.00;;;;;;;6.28;85.14;98292.03;5050909;28;20116;-55
2021/12/01 04:07:10;;;;;;;7.10;5.07;;;;;;;6.28;85.13;98277.47;5035330;28;20060;-56
2021/12/01 04:09:38;;;;;;;6.85;5.97;;;;;;;6.29;85.27;98273.19;5035167;28;20029;-56
2021/12/01 04:12:05;;;;;;;6.53;4.88;;;;;;;6.28;85.14;98264.63;5034027;28;20099;-56
2021/12/01 04:14:30;;;;;;;7.68;4.85;;;;;;;6.28;84.86;98262.03;5035361;28;20040;-56
2021/12/01 04:16:58;;;;;;;7.78;4.82;;;;;;;6.28;85.16;98258.59;5035451;28;20136;-55
2021/12/01 04:19:26;;;;;;;5.65;4.90;;;;;;;6.28;85.37;98243.16;5035032;28;20117;-56
2021/12/01 04:21:52;;;;;;;4.60;4.10;;;;;;;6.27;84.61;98242.31;5017286;28;20484;-56
2021/12/01 04:24:18;;;;;;;6.40;3.88;;;;;;;6.28;85.03;98232.84;5035247;28;20041;-55
2021/12/01 04:26:46;;;;;;;4.60;4.15;;;;;;;6.28;85.06;98232.84;5033759;28;20072;-55
2021/12/01 04:29:12;;;;;;;5.82;4.97;;;;;;;6.29;84.79;98230.31;5034775;28;20072;-55
2021/12/01 04:31:40;;;;;;;5.65;4.38;;;;;;;6.29;84.68;98229.44;5034756;28;20047;-55
2021/12/01 04:34:06;;;;;;;5.10;3.60;;;;;;;6.28;85.01;98210.59;5033622;28;20068;-55
2021/12/01 04:36:35;;;;;;;4.20;3.80;;;;;;;6.29;84.66;98207.16;5033604;28;20041;-55
2021/12/01 04:39:07;;;;;;;8.52;4.10;;;;;;;6.29;84.80;98180.56;5033422;28;20041;-55
2021/12/01 04:42:04;;;;;;;5.20;3.88;;;;;;;6.28;84.90;98172.00;5034530;28;20488;-55
2021/12/01 04:44:28;;;;;;;4.20;3.83;;;;;;;6.30;84.89;98175.44;5032200;28;20500;-55
2021/12/01 04:47:02;;;;;;;5.10;4.10;;;;;;;6.30;84.66;98161.69;5034615;28;20073;-55
2021/12/01 04:49:35;;;;;;;7.13;4.68;;;;;;;6.30;84.94;98143.69;5033568;28;20128;-55
2021/12/01 04:52:10;;;;;;;7.97;4.30;;;;;;;6.30;85.06;98146.25;5033264;28;20040;-55
2021/12/01 04:54:36;;;;;;;5.53;3.97;;;;;;;6.30;84.63;98128.25;5033620;28;20065;-55
2021/12/01 04:57:04;;;;;;;6.85;4.38;;;;;;;6.31;85.18;98127.41;5033307;28;20366;-55
2021/12/01 04:59:31;;;;;;;7.07;3.90;;;;;;;6.29;85.02;98121.38;5016542;28;20033;-55
2021/12/01 05:02:00;;;;;;;6.15;4.32;;;;;;;6.27;85.04;98093.09;5032801;28;20144;-55
2021/12/01 05:04:26;;;;;;;6.10;4.32;;;;;;;6.28;85.13;98115.38;5033170;28;20064;-55
2021/12/01 05:06:52;;;;;;;8.65;4.13;;;;;;;6.29;85.39;98093.97;5016779;28;20102;-55
2021/12/01 05:09:23;;;;;;;5.47;3.40;;;;;;;6.29;84.82;98085.34;5033070;28;20041;-55
2021/12/01 05:11:55;;;;;;;4.18;3.45;;;;;;;6.30;84.60;98090.53;5033031;28;20065;-55
2021/12/01 05:14:25;;;;;;;5.25;3.83;;;;;;;6.32;84.81;98082.81;5032812;28;20045;-55
2021/12/01 05:16:56;;;;;;;7.18;4.57;;;;;;;6.30;85.16;98074.22;5033465;28;20052;-56
2021/12/01 05:19:21;;;;;;;6.45;4.22;;;;;;;6.32;84.82;98064.78;5049129;28;20037;-55
2021/12/01 05:21:52;;;;;;;5.20;3.40;;;;;;;6.32;84.66;98065.63;5049662;28;20164;-55
2021/12/01 05:24:20;;;;;;;4.35;3.50;;;;;;;6.29;85.18;98047.66;5034066;28;20520;-55
2021/12/01 05:26:46;;;;;;;4.53;3.92;;;;;;;6.31;85.35;98043.34;5016113;28;20041;-55
2021/12/01 05:29:22;;;;;;;10.13;3.80;;;;;;;6.30;85.10;98041.66;5032845;28;20385;-55
2021/12/01 05:31:53;;;;;;;6.68;3.50;;;;;;;6.31;85.26;98051.06;5015794;28;20045;-55
2021/12/01 05:34:24;;;;;;;4.20;3.45;;;;;;;6.31;85.18;98047.63;5049512;28;20128;-55
2021/12/01 05:36:59;;;;;;;4.50;3.00;;;;;;;6.30;84.74;98039.06;5032749;28;20128;-55
2021/12/01 05:39:28;;;;;;;5.32;4.28;;;;;;;6.31;85.21;98035.63;5048980;28;20038;-55
2021/12/01 05:41:59;;;;;;;7.43;3.47;;;;;;;6.32;84.91;98028.78;5032284;28;20029;-55
2021/12/01 05:44:30;;;;;;;3.92;3.47;;;;;;;6.32;84.89;98015.91;5016126;28;20563;-55
2021/12/01 05:47:00;;;;;;;6.80;3.63;;;;;;;6.32;84.94;98024.47;5048959;28;20505;-56
2021/12/01 05:49:28;;;;;;;4.22;3.25;;;;;;;6.32;85.09;98015.91;5032744;28;20053;-55
2021/12/01 05:52:00;;;;;;;4.93;3.70;;;;;;;6.34;85.00;98012.47;5033536;28;20607;-55
2021/12/01 05:54:26;;;;;;;3.78;2.38;;;;;;;6.32;84.78;97998.75;5033399;28;20045;-55
2021/12/01 05:56:52;;;;;;;3.15;2.83;;;;;;;6.32;84.92;97990.19;5032187;28;20033;-55
2021/12/01 05:59:22;;;;;;;3.50;3.20;;;;;;;6.33;84.92;97985.00;5032223;28;20091;-55
2021/12/01 06:01:50;;;;;;;4.55;2.95;;;;;;;6.34;84.70;97980.75;5032009;28;20095;-55
2021/12/01 06:04:18;;;;;;;5.00;2.83;;;;;;;6.34;85.21;97991.88;5015751;28;20033;-55
2021/12/01 06:06:43;;;;;;;4.22;3.53;;;;;;;6.33;85.03;97977.31;5032082;28;20476;-55
2021/12/01 06:09:09;;;;;;;3.00;2.45;;;;;;;6.36;84.83;97976.47;5032516;28;20041;-55
2021/12/01 06:11:38;;;;;;;4.28;2.90;;;;;;;6.34;85.29;97971.28;5048989;28;20043;-55
2021/12/01 06:14:11;;;;;;;6.20;3.53;;;;;;;6.34;84.76;97961.00;5032613;28;20065;-55
2021/12/01 06:16:42;;;;;;;6.15;3.60;;;;;;;6.35;84.81;97967.88;5032068;28;20033;-55
2021/12/01 06:19:13;;;;;;;6.18;3.22;;;;;;;6.36;84.91;97967.00;5031970;28;20044;-55
2021/12/01 06:21:41;;;;;;;4.07;3.08;;;;;;;6.37;85.19;97944.72;5032716;28;20041;-55
2021/12/01 06:24:07;;;;;;;3.45;2.75;;;;;;;6.37;84.61;97960.16;5031990;28;20559;-55
2021/12/01 06:26:40;;;;;;;4.03;3.10;;;;;;;6.37;84.70;97944.72;5048641;28;20061;-55
2021/12/01 06:29:05;;;;;;;4.20;3.08;;;;;;;6.36;85.10;97943.84;5031933;28;20041;-55
2021/12/01 06:31:31;;;;;;;5.00;3.38;;;;;;;6.36;84.94;97937.88;5032201;28;20113;-56
2021/12/01 06:34:03;;;;;;;3.92;3.00;;;;;;;6.35;84.95;97941.28;5033626;28;20079;-55
2021/12/01 06:36:34;;;;;;;3.22;2.67;;;;;;;6.36;85.32;97936.13;5032070;28;20374;-55
2021/12/01 06:39:08;;;;;;;2.60;2.38;;;;;;;6.37;84.94;97935.28;5031975;28;20038;-55
2021/12/01 06:41:39;;;;;;;;;;;;;;;6.37;84.85;97932.72;5033754;28;20059;-55
2021/12/01 06:44:12;;;;;;;4.63;3.38;;;;;;;6.36;85.08;97923.28;5031677;28;20380;-55
2021/12/01 06:46:41;;;;;;;2.67;2.33;;;;;;;6.36;84.84;97920.69;5032299;28;20034;-55
2021/12/01 06:49:11;;;;;;;2.50;2.10;;;;;;;6.38;84.76;97923.28;5032045;28;20148;-55
2021/12/01 06:51:42;;;;;;;2.60;2.40;;;;;;;6.38;84.93;97908.69;5033329;28;20186;-55
2021/12/01 06:54:10;;;;;;;3.00;2.72;;;;;;;6.39;85.11;97905.25;5031780;28;20037;-55
2021/12/01 06:56:42;;;;;;;3.42;2.45;;;;;;;6.39;84.80;97888.94;5032930;28;20041;-56
2021/12/01 06:59:10;;;;;;;2.67;2.47;;;;;;;6.39;85.14;97886.38;5032112;28;20037;-55
2021/12/01 07:01:43;;;;;;;2.75;2.13;;;;;;;6.40;85.11;97875.22;5031243;28;20049;-55
2021/12/01 07:04:15;;;;;;;2.58;2.38;;;;;;;6.39;85.01;97887.25;5031986;28;20047;-55
2021/12/01 07:06:43;;;;;;;2.00;1.80;;;;;;;6.41;85.15;97871.78;5048723;28;20155;-57
2021/12/01 07:09:17;;;;;;;2.35;2.15;;;;;;;6.41;85.14;97858.94;5035253;28;20069;-55
2021/12/01 07:11:51;;;;;;;;;;;;;;;6.40;84.73;97865.81;5035118;28;20045;-55
2021/12/01 07:14:22;;;;;;;4.13;2.25;;;;;;;6.39;85.38;97861.53;5035684;28;19916;-55
2021/12/01 07:16:53;;;;;;;1.95;1.75;;;;;;;6.42;85.03;97864.94;5018842;28;20401;-55
2021/12/01 07:19:24;;;;;;;1.88;1.77;;;;;;;6.43;85.08;97858.94;5018506;28;20045;-56
2021/12/01 07:21:49;;;;;;;2.28;1.92;;;;;;;6.43;85.11;97864.09;5035239;28;20045;-55
2021/12/01 07:24:22;;;;;;;1.80;1.55;;;;;;;6.44;85.25;97864.06;5035035;28;20037;-55
2021/12/01 07:26:53;;;;;;;1.88;1.67;;;;;;;6.43;84.83;97849.50;5018210;28;20109;-55
2021/12/01 07:29:25;;;;;;;2.30;2.13;;;;;;;6.46;84.86;97848.66;5034935;28;20044;-54
2021/12/01 07:31:52;;;;;;;2.55;1.92;;;;;;;6.45;84.76;97847.78;5018464;28;20034;-55
2021/12/01 07:34:26;;;;;;;2.22;2.03;;;;;;;6.46;85.26;97852.06;5018210;28;20033;-55
2021/12/01 07:36:59;;;;;;;1.50;1.40;;;;;;;6.47;85.11;97837.47;5034775;28;20048;-55
2021/12/01 07:39:30;;;;;;;1.80;1.70;;;;;;;6.46;85.26;97830.63;5018455;28;20136;-55
2021/12/01 07:42:01;;;;;;;2.28;1.73;;;;;;;6.46;85.11;97831.47;5036009;28;20388;-55
2021/12/01 07:44:35;;;;;;;1.40;1.30;;;;;;;6.46;85.13;97834.06;5034765;28;20128;-55
2021/12/01 07:47:00;;;;;;;1.70;1.60;;;;;;;6.48;84.63;97831.47;5034601;28;20029;-55
2021/12/01 07:49:31;;;;;;;1.52;1.42;;;;;;;6.47;84.87;97833.19;5017916;28;20481;-55
2021/12/01 07:51:59;;;;;;;2.80;1.92;;;;;;;6.47;85.22;97829.75;5051830;28;20072;-55
2021/12/01 07:54:25;;;;;;;1.85;1.75;;;;;;;6.47;85.22;97816.88;5017815;28;20045;-55
2021/12/01 07:56:50;;;;;;;2.35;1.50;;;;;;;6.48;84.74;97823.75;5035677;28;20030;-55
2021/12/01 07:59:16;;;;;;;2.20;2.00;;;;;;;6.48;85.15;97818.59;5050961;28;20041;-55
2021/12/01 08:01:47;;;;;;;1.50;1.40;;;;;;;6.47;85.00;97834.91;5033885;28;20540;-55
2021/12/01 08:04:19;;;;;;;1.85;1.75;;;;;;;6.46;84.94;97808.31;5017360;28;20037;-55
2021/12/01 08:06:49;;;;;;;2.10;1.67;;;;;;;6.47;85.17;97806.59;5034598;28;20049;-55
2021/12/01 08:09:20;;;;;;;1.23;1.20;;;;;;;6.47;85.08;97807.47;5017992;28;20033;-55
2021/12/01 08:11:52;;;;;;;1.40;1.30;;;;;;;6.47;85.07;97794.59;5017777;28;20049;-55
2021/12/01 08:14:18;;;;;;;1.83;1.70;;;;;;;6.47;84.97;97786.88;5034137;28;20120;-55
2021/12/01 08:16:43;;;;;;;1.75;1.50;;;;;;;6.48;84.94;97780.00;5034078;28;20067;-55
2021/12/01 08:19:14;;;;;;;2.47;1.77;;;;;;;6.49;85.17;97785.16;5035252;28;20030;-55
2021/12/01 08:21:40;;;;;;;2.78;1.70;;;;;;;6.46;85.20;97780.00;5034526;28;20500;-56
2021/12/01 08:24:12;;;;;;;2.33;2.13;;;;;;;6.47;84.79;97770.56;5017492;28;20079;-55
2021/12/01 08:26:49;;;;;;;2.05;1.95;;;;;;;6.47;85.36;97774.00;5017313;28;20038;-55
2021/12/01 08:29:20;;;;;;;1.70;1.60;;;;;;;6.46;85.38;97777.44;5034119;28;20038;-55
2021/12/01 08:31:51;;;;;;;1.58;1.48;;;;;;;6.48;85.44;97773.16;5017039;28;20037;-55
2021/12/01 08:34:25;;;;;;;1.60;1.50;;;;;;;6.48;85.29;97754.25;5017029;28;20151;-55
2021/12/01 08:36:58;;;;;;;1.70;1.60;;;;;;;6.49;85.52;97745.69;5017234;28;20055;-55
2021/12/01 08:39:32;;;;;;;2.38;2.17;;;;;;;6.48;84.99;97750.00;5033978;28;20072;-55
2021/12/01 08:42:04;;;;;;;3.05;2.13;;;;;;;6.46;84.84;97767.16;5033775;28;20037;-55
2021/12/01 08:44:38;;;;;;;1.70;1.58;;;;;;;6.49;85.03;97743.97;5017117;28;20443;-55
2021/12/01 08:47:09;;;;;;;1.98;1.75;;;;;;;6.47;85.44;97745.69;5033113;28;20497;-55
2021/12/01 08:49:38;;;;;;;3.83;1.65;;;;;;;6.49;85.14;97737.97;5033381;28;20091;-55
2021/12/01 08:52:12;;;;;;;1.50;1.40;;;;;;;6.51;85.11;97741.38;5033514;28;20477;-55
2021/12/01 08:54:43;;;;;;;;;;;;;;;6.51;84.95;97738.81;5033941;28;20392;-55
2021/12/01 08:57:17;;;;;;;1.40;1.30;;;;;;;6.51;85.06;97741.38;5033590;28;19916;-55
2021/12/01 08:59:49;;;;;;;1.90;1.80;;;;;;;6.50;85.03;97748.28;5033239;28;20033;-55
2021/12/01 09:02:19;;;;;;;2.42;2.00;;;;;;;6.52;85.50;97735.38;5016058;28;20077;-55
2021/12/01 09:04:50;;;;;;;1.40;1.30;;;;;;;6.53;85.44;97732.81;5033018;28;20029;-55
2021/12/01 09:07:22;;;;;;;2.05;1.30;;;;;;;6.53;85.63;97726.81;5033624;28;20045;-55
2021/12/01 09:09:53;;;;;;;1.70;1.60;;;;;;;6.55;85.12;97722.50;5049477;28;20086;-55
2021/12/01 09:12:24;;;;;;;2.70;2.08;;;;;;;6.55;84.89;97732.81;5016268;28;20041;-55
2021/12/01 09:14:54;;;;;;;1.92;1.65;;;;;;;6.56;84.70;97726.78;5016363;28;20036;-55
2021/12/01 09:17:29;;;;;;;2.25;1.65;;;;;;;6.56;85.50;97726.78;5016784;28;20095;-55
2021/12/01 09:20:02;;;;;;;2.10;1.92;;;;;;;6.56;85.20;97724.22;5033191;28;20033;-55
2021/12/01 09:22:36;;;;;;;2.08;1.88;;;;;;;6.57;84.88;97715.63;5016483;28;20071;-55
2021/12/01 09:25:11;;;;;;;1.38;1.27;;;;;;;6.58;85.11;97725.06;5016131;28;20033;-55
2021/12/01 09:27:44;;;;;;;1.80;1.70;;;;;;;6.58;85.04;97722.50;5016052;28;20072;-55
2021/12/01 09:30:11;;;;;;;1.92;1.50;;;;;;;6.61;85.31;97727.63;5032086;28;20036;-55
2021/12/01 09:32:38;;;;;;;1.67;1.58;;;;;;;6.60;84.99;97722.47;5016344;28;20048;-55
2021/12/01 09:35:05;;;;;;;1.80;1.70;;;;;;;6.61;85.52;97722.47;5015874;28;20497;-55
2021/12/01 09:37:31;;;;;;;1.67;1.58;;;;;;;6.61;85.55;97730.22;5032257;28;20135;-55
2021/12/01 09:39:57;;;;;;;1.30;1.20;;;;;;;6.64;85.04;97731.91;5048903;28;20385;-55
2021/12/01 09:42:23;;;;;;;1.40;1.30;;;;;;;6.63;84.78;97713.00;5032601;28;20061;-55
2021/12/01 09:44:55;;;;;;;2.17;1.90;;;;;;;6.64;85.41;97731.91;5032492;28;20080;-55
2021/12/01 09:47:26;;;;;;;1.80;1.70;;;;;;;6.64;84.98;97714.72;5015961;28;20378;-55
2021/12/01 09:49:57;;;;;;;1.70;1.60;;;;;;;6.65;85.39;97716.44;5016197;28;20055;-55
2021/12/01 09:52:28;;;;;;;1.83;1.48;;;;;;;6.65;84.95;97707.88;5032293;28;20048;-55
2021/12/01 09:55:00;;;;;;;1.70;1.60;;;;;;;6.66;85.17;97707.84;5032925;28;20065;-55
2021/12/01 09:57:33;;;;;;;1.77;1.60;;;;;;;6.65;85.35;97708.72;5032559;28;20041;-55
2021/12/01 10:00:05;;;;;;;1.83;1.73;;;;;;;6.68;85.15;97707.88;5015929;28;20033;-55
2021/12/01 10:02:38;;;;;;;2.17;1.90;;;;;;;6.70;85.38;97708.69;5032122;28;20081;-55
2021/12/01 10:05:09;;;;;;;2.17;1.98;;;;;;;6.71;85.26;97694.94;5016222;28;20041;-55
2021/12/01 10:07:39;;;;;;;2.03;1.92;;;;;;;6.73;85.28;97689.81;5032792;28;20037;-55
2021/12/01 10:10:13;;;;;;;1.80;1.70;;;;;;;6.72;85.14;97686.38;5032521;28;20041;-55
2021/12/01 10:12:45;;;;;;;2.30;2.10;;;;;;;6.72;85.16;97688.94;5032398;28;20041;-55
2021/12/01 10:15:27;;;;;;;2.45;1.92;;;;;;;6.73;85.13;97684.66;5032088;28;20034;-56
2021/12/01 10:18:09;;;;;;;1.60;1.50;;;;;;;6.73;85.24;97688.06;5016030;28;20038;-55
2021/12/01 10:20:40;;;;;;;1.95;1.85;;;;;;;6.72;85.11;97681.22;5031851;28;20037;-55
2021/12/01 10:23:13;;;;;;;1.85;1.75;;;;;;;6.74;85.45;97681.22;5015833;28;20500;-55
2021/12/01 10:25:44;;;;;;;2.00;1.90;;;;;;;6.73;85.08;97670.06;5031892;28;20076;-55
2021/12/01 10:28:36;;;;;;;1.92;1.83;;;;;;;6.74;85.02;97663.19;5032552;28;20046;-55
2021/12/01 10:31:02;;;;;;;1.90;1.80;;;;;;;6.74;84.89;97670.94;5033188;28;20048;-55
2021/12/01 10:33:33;;;;;;;1.85;1.70;;;;;;;6.74;85.26;97669.19;5033214;28;20049;-55
2021/12/01 10:36:02;;;;;;;2.00;1.80;;;;;;;6.72;85.22;97660.63;5032133;28;20036;-55
2021/12/01 10:38:35;;;;;;;3.13;1.65;;;;;;;6.74;85.45;97664.03;5031753;28;20042;-55
2021/12/01 10:41:13;;;;;;;2.17;1.98;;;;;;;6.73;85.21;97664.91;5031582;28;20117;-55
2021/12/01 10:43:48;;;;;;;2.50;2.30;;;;;;;6.74;85.00;97663.19;5035625;28;20072;-55
2021/12/01 10:46:16;;;;;;;2.10;2.00;;;;;;;6.74;85.09;97658.91;5036113;28;20052;-55
2021/12/01 10:48:45;;;;;;;2.35;2.00;;;;;;;6.75;85.09;97663.19;5035352;28;20037;-55
2021/12/01 10:51:30;;;;;;;1.73;1.63;;;;;;;6.75;84.73;97665.75;5035639;28;20565;-55
2021/12/01 10:53:56;;;;;;;2.03;1.92;;;;;;;6.74;84.95;97658.91;5019782;28;20127;-55
2021/12/01 10:56:27;;;;;;;2.28;2.00;;;;;;;6.74;85.45;97652.91;5035718;28;20083;-55
2021/12/01 10:58:57;;;;;;;3.97;2.75;;;;;;;6.74;84.87;97658.06;5035407;28;20508;-54
2021/12/01 11:01:26;;;;;;;2.40;2.20;;;;;;;6.74;84.89;97656.31;5051390;28;20033;-55
2021/12/01 11:04:00;;;;;;;1.98;1.88;;;;;;;6.75;84.88;97662.34;5035627;28;20038;-55
2021/12/01 11:06:27;;;;;;;1.98;1.88;;;;;;;6.74;85.04;97669.19;5019359;28;20037;-55
2021/12/01 11:08:58;;;;;;;5.45;2.83;;;;;;;6.74;85.31;97665.78;5019228;28;20572;-55
2021/12/01 11:11:33;;;;;;;3.00;2.28;;;;;;;6.75;84.81;97676.06;5035462;28;20064;-55
2021/12/01 11:14:13;;;;;;;3.38;2.53;;;;;;;6.74;85.29;97681.22;5018817;28;20053;-55
2021/12/01 11:16:41;;;;;;;3.85;2.40;;;;;;;6.74;84.95;97681.22;5035495;28;20041;-55
2021/12/01 11:19:12;;;;;;;3.30;2.55;;;;;;;6.74;85.41;97683.78;5035091;28;20072;-55
2021/12/01 11:21:42;;;;;;;3.00;2.30;;;;;;;6.74;84.92;97674.34;5018774;28;20053;-55
2021/12/01 11:24:14;;;;;;;5.15;2.55;;;;;;;6.73;85.32;97675.19;5035163;28;20110;-55
2021/12/01 11:26:50;;;;;;;2.45;1.95;;;;;;;6.72;85.01;97670.06;5034949;28;20052;-55
2021/12/01 11:29:26;;;;;;;3.53;3.17;;;;;;;6.73;85.21;97679.50;5035383;28;20052;-56
2021/12/01 11:31:57;;;;;;;5.38;2.30;;;;;;;6.72;84.98;97675.22;5035268;28;20046;-55
2021/12/01 11:34:28;;;;;;;6.97;3.17;;;;;;;6.72;84.97;97681.22;5018527;28;20388;-55
2021/12/01 11:37:02;;;;;;;3.72;2.53;;;;;;;6.70;85.11;97678.66;5034629;28;20136;-56
2021/12/01 11:39:31;;;;;;;;;;;;;;;6.68;85.09;97682.13;5018744;28;20084;-55
2021/12/01 11:42:01;;;;;;;5.30;3.00;;;;;;;6.68;85.39;97677.81;5035763;28;19923;-55
2021/12/01 11:44:29;;;;;;;3.35;2.33;;;;;;;6.68;85.49;97677.81;5035094;28;20049;-55
2021/12/01 11:46:59;;;;;;;4.13;2.28;;;;;;;6.68;85.00;97682.97;5035953;28;20087;-55
2021/12/01 11:49:28;;;;;;;3.83;2.88;;;;;;;6.68;85.33;97690.69;5051045;28;20508;-55
2021/12/01 11:51:57;;;;;;;5.93;2.53;;;;;;;6.69;85.10;97679.53;5034717;28;20041;-55
2021/12/01 11:54:25;;;;;;;8.55;2.65;;;;;;;6.70;85.06;97676.09;5034943;28;20056;-55
2021/12/01 11:57:08;;;;;;;7.53;3.00;;;;;;;6.69;85.53;97684.66;5017906;28;20037;-55
2021/12/01 11:59:38;;;;;;;7.00;2.80;;;;;;;6.68;84.95;97679.53;5034405;28;20128;-55
2021/12/01 12:02:15;;;;;;;5.88;2.40;;;;;;;6.68;85.23;97680.38;5034184;28;20053;-55